Wetterdaten: Samstag, 31.08.2013
Datum Zeit Temperatur Luftfeuchte Luftdruck Regen Wind Richtung Richtung Taupunkt Windchill Windben
31.08.2013 00:00 9,9 C 83 % 1023,4 hPa 0,0 l/m 0,0 km/h (0 Bft) S 180 7,2 C 9,8 C 0,0 km/h (0 Bft)
31.08.2013 00:05 9,8 C 83 % 1023,5 hPa 0,0 l/m 0,0 km/h (0 Bft) O 90 7,1 C 9,7 C 0,0 km/h (0 Bft)
31.08.2013 00:10 9,7 C 84 % 1023,5 hPa 0,0 l/m 0,0 km/h (0 Bft) O 90 7,1 C 9,5 C 0,0 km/h (0 Bft)
31.08.2013 00:15 9,7 C 84 % 1023,5 hPa 0,0 l/m 0,0 km/h (0 Bft) O-SO 112 7,1 C 9,4 C 0,0 km/h (0 Bft)
31.08.2013 00:20 9,7 C 84 % 1023,5 hPa 0,0 l/m 0,0 km/h (0 Bft) O 90 7,1 C 9,3 C 0,0 km/h (0 Bft)
31.08.2013 00:25 9,8 C 84 % 1023,6 hPa 0,0 l/m 0,0 km/h (0 Bft) O 90 7,2 C 9,3 C 0,0 km/h (0 Bft)
31.08.2013 00:30 9,8 C 84 % 1023,6 hPa 0,0 l/m 0,0 km/h (0 Bft) S 180 7,2 C 9,5 C 0,0 km/h (0 Bft)
31.08.2013 00:35 9,9 C 85 % 1023,6 hPa 0,0 l/m 0,2 km/h (0 Bft) O 90 7,5 C 9,5 C 0,0 km/h (0 Bft)
31.08.2013 00:40 10,2 C 85 % 1023,6 hPa 0,0 l/m 0,2 km/h (0 Bft) SO 135 7,8 C 9,8 C 0,0 km/h (0 Bft)
31.08.2013 00:45 10,3 C 85 % 1023,4 hPa 0,0 l/m 0,0 km/h (0 Bft) S 180 7,9 C 10,0 C 0,0 km/h (0 Bft)
31.08.2013 00:50 10,5 C 84 % 1023,4 hPa 0,0 l/m 0,2 km/h (0 Bft) O-SO 112 7,9 C 10,3 C 0,0 km/h (0 Bft)
31.08.2013 00:55 10,5 C 84 % 1023,4 hPa 0,0 l/m 0,2 km/h (0 Bft) S-SW 202 7,9 C 10,4 C 0,0 km/h (0 Bft)
31.08.2013 01:00 10,5 C 84 % 1023,4 hPa 0,0 l/m 0,0 km/h (0 Bft) S 180 7,9 C 10,5 C 1,8 km/h (1 Bft)
31.08.2013 01:05 10,5 C 84 % 1023,4 hPa 0,0 l/m 0,2 km/h (0 Bft) O-SO 112 7,9 C 10,5 C 2,1 km/h (1 Bft)
31.08.2013 01:10 10,9 C 84 % 1023,4 hPa 0,0 l/m 0,2 km/h (0 Bft) O 90 8,3 C 10,8 C 0,0 km/h (0 Bft)
31.08.2013 01:15 10,8 C 84 % 1023,4 hPa 0,0 l/m 0,2 km/h (0 Bft) W-SW 247 8,2 C 10,9 C 0,0 km/h (0 Bft)
31.08.2013 01:20 10,9 C 84 % 1023,4 hPa 0,0 l/m 0,0 km/h (0 Bft) SW 225 8,3 C 10,9 C 0,0 km/h (0 Bft)
31.08.2013 01:25 10,8 C 83 % 1023,4 hPa 0,0 l/m 0,0 km/h (0 Bft) S-SO 157 8,0 C 10,9 C 0,0 km/h (0 Bft)
31.08.2013 01:30 10,8 C 83 % 1023,4 hPa 0,0 l/m 0,0 km/h (0 Bft) S-SO 157 8,0 C 10,8 C 0,0 km/h (0 Bft)
31.08.2013 01:35 10,8 C 83 % 1023,4 hPa 0,0 l/m 0,0 km/h (0 Bft) S 180 8,0 C 10,7 C 0,0 km/h (0 Bft)
31.08.2013 01:40 10,9 C 83 % 1023,4 hPa 0,0 l/m 0,5 km/h (0 Bft) O-SO 112 8,1 C 10,8 C 0,0 km/h (0 Bft)
31.08.2013 01:45 11,1 C 83 % 1023,5 hPa 0,0 l/m 0,6 km/h (0 Bft) O 90 8,3 C 11,0 C 0,0 km/h (0 Bft)
31.08.2013 01:50 11,2 C 83 % 1023,5 hPa 0,0 l/m 0,2 km/h (0 Bft) W-SW 247 8,4 C 11,2 C 0,0 km/h (0 Bft)
31.08.2013 01:55 11,2 C 83 % 1023,5 hPa 0,0 l/m 0,5 km/h (0 Bft) S-SO 157 8,4 C 11,2 C 3,1 km/h (1 Bft)
31.08.2013 02:00 11,4 C 82 % 1023,5 hPa 0,0 l/m 1,1 km/h (1 Bft) O-NO 67 8,4 C 11,5 C 0,0 km/h (0 Bft)
31.08.2013 02:05 11,4 C 82 % 1023,3 hPa 0,0 l/m 1,0 km/h (0 Bft) O-NO 67 8,4 C 11,6 C 2,6 km/h (1 Bft)
31.08.2013 02:10 11,4 C 82 % 1023,3 hPa 0,0 l/m 0,2 km/h (0 Bft) O-NO 67 8,4 C 11,6 C 0,0 km/h (0 Bft)
31.08.2013 02:15 11,4 C 82 % 1023,3 hPa 0,0 l/m 0,2 km/h (0 Bft) O-NO 67 8,4 C 11,5 C 0,0 km/h (0 Bft)
31.08.2013 02:20 11,4 C 81 % 1023,3 hPa 0,0 l/m 0,0 km/h (0 Bft) NO 45 8,3 C 11,5 C 0,0 km/h (0 Bft)
31.08.2013 02:25 11,4 C 81 % 1023,4 hPa 0,0 l/m 0,0 km/h (0 Bft) NO 45 8,3 C 11,5 C 0,0 km/h (0 Bft)
31.08.2013 02:30 11,4 C 81 % 1023,4 hPa 0,0 l/m 0,0 km/h (0 Bft) O-NO 67 8,3 C 11,4 C 0,0 km/h (0 Bft)
31.08.2013 02:35 11,4 C 81 % 1023,4 hPa 0,0 l/m 0,0 km/h (0 Bft) NO 45 8,3 C 11,4 C 0,0 km/h (0 Bft)
31.08.2013 02:40 11,4 C 81 % 1023,4 hPa 0,0 l/m 0,0 km/h (0 Bft) W 270 8,3 C 11,5 C 0,0 km/h (0 Bft)
31.08.2013 02:45 11,4 C 81 % 1023,4 hPa 0,0 l/m 0,5 km/h (0 Bft) W 270 8,3 C 11,5 C 2,6 km/h (1 Bft)
31.08.2013 02:50 11,4 C 80 % 1023,4 hPa 0,0 l/m 0,5 km/h (0 Bft) SW 225 8,1 C 11,5 C 0,0 km/h (0 Bft)
31.08.2013 02:55 11,2 C 80 % 1023,4 hPa 0,0 l/m 0,3 km/h (0 Bft) S-SW 202 7,9 C 11,4 C 0,0 km/h (0 Bft)
31.08.2013 03:00 11,1 C 80 % 1023,4 hPa 0,0 l/m 0,0 km/h (0 Bft) W 270 7,8 C 11,2 C 0,0 km/h (0 Bft)
31.08.2013 03:05 11,0 C 81 % 1023,5 hPa 0,0 l/m 0,0 km/h (0 Bft) S-SW 202 7,9 C 11,1 C 0,0 km/h (0 Bft)
31.08.2013 03:10 11,0 C 81 % 1023,5 hPa 0,0 l/m 0,0 km/h (0 Bft) W-NW 292 7,9 C 11,0 C 0,0 km/h (0 Bft)
31.08.2013 03:15 10,9 C 81 % 1023,5 hPa 0,0 l/m 0,0 km/h (0 Bft) W-SW 247 7,8 C 10,9 C 0,0 km/h (0 Bft)
31.08.2013 03:20 11,0 C 81 % 1023,5 hPa 0,0 l/m 0,0 km/h (0 Bft) W 270 7,9 C 11,0 C 0,0 km/h (0 Bft)
31.08.2013 03:25 11,0 C 81 % 1023,7 hPa 0,0 l/m 0,0 km/h (0 Bft) W 270 7,9 C 11,0 C 0,0 km/h (0 Bft)
31.08.2013 03:30 11,1 C 81 % 1023,7 hPa 0,0 l/m 0,0 km/h (0 Bft) W 270 8,0 C 11,0 C 0,0 km/h (0 Bft)
31.08.2013 03:35 11,1 C 81 % 1023,7 hPa 0,0 l/m 0,0 km/h (0 Bft) W-NW 292 8,0 C 11,0 C 0,0 km/h (0 Bft)
31.08.2013 03:40 11,0 C 81 % 1023,7 hPa 0,0 l/m 0,0 km/h (0 Bft) W-SW 247 7,9 C 11,0 C 0,0 km/h (0 Bft)
31.08.2013 03:45 11,0 C 81 % 1023,4 hPa 0,0 l/m 0,0 km/h (0 Bft) W-SW 247 7,9 C 11,0 C 0,0 km/h (0 Bft)
31.08.2013 03:50 10,9 C 81 % 1023,4 hPa 0,0 l/m 0,0 km/h (0 Bft) W-NW 292 7,8 C 10,9 C 0,0 km/h (0 Bft)
31.08.2013 03:55 10,9 C 81 % 1023,4 hPa 0,0 l/m 0,0 km/h (0 Bft) W-NW 292 7,8 C 10,9 C 0,0 km/h (0 Bft)
31.08.2013 04:00 10,9 C 81 % 1023,4 hPa 0,0 l/m 0,0 km/h (0 Bft) W-NW 292 7,8 C 10,9 C 0,0 km/h (0 Bft)
31.08.2013 04:05 11,0 C 81 % 1023,6 hPa 0,0 l/m 0,0 km/h (0 Bft) W 270 7,9 C 10,9 C 0,0 km/h (0 Bft)
31.08.2013 04:10 11,0 C 81 % 1023,6 hPa 0,0 l/m 0,0 km/h (0 Bft) S 180 7,9 C 10,9 C 0,0 km/h (0 Bft)
31.08.2013 04:15 11,1 C 81 % 1023,6 hPa 0,0 l/m 0,0 km/h (0 Bft) S 180 8,0 C 11,0 C 0,0 km/h (0 Bft)
31.08.2013 04:20 11,2 C 81 % 1023,6 hPa 0,0 l/m 0,0 km/h (0 Bft) S 180 8,1 C 11,0 C 0,0 km/h (0 Bft)
31.08.2013 04:25 11,2 C 81 % 1023,4 hPa 0,0 l/m 0,0 km/h (0 Bft) W 270 8,1 C 11,1 C 0,0 km/h (0 Bft)
31.08.2013 04:30 11,2 C 81 % 1023,4 hPa 0,0 l/m 0,0 km/h (0 Bft) W 270 8,1 C 11,1 C 0,0 km/h (0 Bft)
31.08.2013 04:35 11,2 C 81 % 1023,4 hPa 0,0 l/m 0,0 km/h (0 Bft) W-NW 292 8,1 C 11,1 C 0,0 km/h (0 Bft)
31.08.2013 04:40 11,1 C 81 % 1023,4 hPa 0,0 l/m 0,0 km/h (0 Bft) W-NW 292 8,0 C 11,1 C 0,0 km/h (0 Bft)
31.08.2013 04:45 11,1 C 81 % 1023,2 hPa 0,0 l/m 0,0 km/h (0 Bft) W-NW 292 8,0 C 11,1 C 0,0 km/h (0 Bft)
31.08.2013 04:50 11,1 C 81 % 1023,2 hPa 0,0 l/m 0,2 km/h (0 Bft) W-NW 292 8,0 C 11,1 C 1,6 km/h (1 Bft)
31.08.2013 04:55 11,1 C 82 % 1023,2 hPa 0,0 l/m 0,2 km/h (0 Bft) S 180 8,1 C 11,1 C 0,0 km/h (0 Bft)
31.08.2013 05:00 11,1 C 82 % 1023,2 hPa 0,0 l/m 0,0 km/h (0 Bft) S 180 8,1 C 11,0 C 0,0 km/h (0 Bft)
31.08.2013 05:05 11,1 C 82 % 1023,1 hPa 0,0 l/m 0,0 km/h (0 Bft) S 180 8,1 C 11,1 C 1,6 km/h (1 Bft)
31.08.2013 05:10 11,1 C 82 % 1023,1 hPa 0,0 l/m 0,2 km/h (0 Bft) S 180 8,1 C 11,1 C 0,0 km/h (0 Bft)
31.08.2013 05:15 11,0 C 82 % 1023,1 hPa 0,0 l/m 0,2 km/h (0 Bft) S 180 8,0 C 11,0 C 0,0 km/h (0 Bft)
31.08.2013 05:20 10,9 C 82 % 1023,1 hPa 0,0 l/m 0,0 km/h (0 Bft) S 180 7,9 C 10,9 C 0,0 km/h (0 Bft)
31.08.2013 05:25 10,8 C 82 % 1023,2 hPa 0,0 l/m 0,0 km/h (0 Bft) W 270 7,9 C 10,8 C 0,0 km/h (0 Bft)
31.08.2013 05:30 10,7 C 82 % 1023,2 hPa 0,0 l/m 0,0 km/h (0 Bft) SW 225 7,8 C 10,7 C 0,0 km/h (0 Bft)
31.08.2013 05:35 10,7 C 82 % 1023,2 hPa 0,0 l/m 0,0 km/h (0 Bft) S 180 7,8 C 10,7 C 0,0 km/h (0 Bft)
31.08.2013 05:40 10,7 C 82 % 1023,2 hPa 0,0 l/m 0,0 km/h (0 Bft) S 180 7,8 C 10,7 C 0,0 km/h (0 Bft)
31.08.2013 05:45 10,7 C 82 % 1023,1 hPa 0,0 l/m 0,0 km/h (0 Bft) S-SO 157 7,8 C 10,7 C 0,0 km/h (0 Bft)
31.08.2013 05:50 10,7 C 82 % 1023,1 hPa 0,0 l/m 0,0 km/h (0 Bft) W-SW 247 7,8 C 10,7 C 0,0 km/h (0 Bft)
31.08.2013 05:55 10,7 C 82 % 1023,1 hPa 0,0 l/m 0,0 km/h (0 Bft) S-SO 157 7,8 C 10,7 C 0,0 km/h (0 Bft)
31.08.2013 06:00 10,7 C 82 % 1023,1 hPa 0,0 l/m 0,0 km/h (0 Bft) S 180 7,8 C 10,7 C 0,0 km/h (0 Bft)
31.08.2013 06:05 10,8 C 83 % 1023,1 hPa 0,0 l/m 0,0 km/h (0 Bft) W-SW 247 8,0 C 10,7 C 0,0 km/h (0 Bft)
31.08.2013 06:10 10,8 C 83 % 1023,1 hPa 0,0 l/m 0,0 km/h (0 Bft) N-NW 337 8,0 C 10,9 C 0,0 km/h (0 Bft)
31.08.2013 06:15 10,9 C 83 % 1023,1 hPa 0,0 l/m 0,0 km/h (0 Bft) N-NW 337 8,1 C 10,9 C 0,0 km/h (0 Bft)
31.08.2013 06:20 11,0 C 82 % 1023,1 hPa 0,0 l/m 0,0 km/h (0 Bft) W-NW 292 8,0 C 11,0 C 0,0 km/h (0 Bft)
31.08.2013 06:25 11,0 C 82 % 1023,1 hPa 0,0 l/m 0,0 km/h (0 Bft) N 360 8,0 C 11,0 C 0,0 km/h (0 Bft)
31.08.2013 06:30 11,2 C 82 % 1023,1 hPa 0,0 l/m 0,0 km/h (0 Bft) N 360 8,2 C 11,0 C 0,0 km/h (0 Bft)
31.08.2013 06:35 11,2 C 83 % 1023,1 hPa 0,0 l/m 0,0 km/h (0 Bft) N 360 8,4 C 11,1 C 0,0 km/h (0 Bft)
31.08.2013 06:40 11,2 C 82 % 1023,1 hPa 0,0 l/m 0,0 km/h (0 Bft) N 360 8,2 C 11,2 C 0,0 km/h (0 Bft)
31.08.2013 06:45 11,2 C 82 % 1023,1 hPa 0,0 l/m 0,2 km/h (0 Bft) N-NO 22 8,2 C 11,2 C 2,7 km/h (1 Bft)
31.08.2013 06:50 11,1 C 82 % 1023,1 hPa 0,0 l/m 0,3 km/h (0 Bft) S-SO 157 8,1 C 11,2 C 0,0 km/h (0 Bft)
31.08.2013 06:55 11,1 C 82 % 1023,1 hPa 0,0 l/m 0,3 km/h (0 Bft) S-SO 157 8,1 C 11,2 C 0,0 km/h (0 Bft)
31.08.2013 07:00 11,1 C 82 % 1023,1 hPa 0,0 l/m 0,0 km/h (0 Bft) O 90 8,1 C 11,2 C 0,0 km/h (0 Bft)
31.08.2013 07:05 11,1 C 82 % 1023,1 hPa 0,0 l/m 0,2 km/h (0 Bft) NO 45 8,1 C 11,2 C 3,5 km/h (1 Bft)
31.08.2013 07:10 11,3 C 82 % 1023,1 hPa 0,0 l/m 0,3 km/h (0 Bft) SO 135 8,3 C 11,3 C 0,0 km/h (0 Bft)
31.08.2013 07:15 11,3 C 82 % 1023,1 hPa 0,0 l/m 0,5 km/h (0 Bft) S 180 8,3 C 11,4 C 0,0 km/h (0 Bft)
31.08.2013 07:20 11,5 C 82 % 1023,1 hPa 0,0 l/m 0,0 km/h (0 Bft) O-SO 112 8,5 C 11,6 C 0,0 km/h (0 Bft)
31.08.2013 07:25 11,6 C 81 % 1023,2 hPa 0,0 l/m 0,0 km/h (0 Bft) S-SW 202 8,5 C 11,7 C 0,0 km/h (0 Bft)
31.08.2013 07:30 11,6 C 81 % 1023,2 hPa 0,0 l/m 0,0 km/h (0 Bft) S 180 8,5 C 11,9 C 0,0 km/h (0 Bft)
31.08.2013 07:35 11,6 C 81 % 1023,2 hPa 0,0 l/m 0,3 km/h (0 Bft) SW 225 8,5 C 11,9 C 1,8 km/h (1 Bft)
31.08.2013 07:40 12,1 C 80 % 1023,2 hPa 0,0 l/m 0,3 km/h (0 Bft) S-SO 157 8,8 C 12,1 C 0,0 km/h (0 Bft)
31.08.2013 07:45 12,3 C 79 % 1023,2 hPa 0,0 l/m 0,2 km/h (0 Bft) S-SO 157 8,8 C 12,5 C 0,0 km/h (0 Bft)
31.08.2013 07:50 12,6 C 79 % 1023,2 hPa 0,0 l/m 0,0 km/h (0 Bft) S-SO 157 9,1 C 13,3 C 0,0 km/h (0 Bft)
31.08.2013 07:55 12,7 C 79 % 1023,2 hPa 0,0 l/m 0,0 km/h (0 Bft) SO 135 9,2 C 13,4 C 0,0 km/h (0 Bft)
31.08.2013 08:00 12,8 C 79 % 1023,2 hPa 0,0 l/m 0,0 km/h (0 Bft) SO 135 9,2 C 13,5 C 0,0 km/h (0 Bft)
31.08.2013 08:05 12,9 C 79 % 1023,3 hPa 0,0 l/m 0,0 km/h (0 Bft) SO 135 9,3 C 13,6 C 0,0 km/h (0 Bft)
31.08.2013 08:10 13,3 C 79 % 1023,3 hPa 0,0 l/m 0,0 km/h (0 Bft) S-SO 157 9,7 C 13,8 C 0,0 km/h (0 Bft)
31.08.2013 08:15 13,5 C 79 % 1023,3 hPa 0,0 l/m 0,0 km/h (0 Bft) W-SW 247 9,9 C 14,0 C 0,0 km/h (0 Bft)
31.08.2013 08:20 13,8 C 78 % 1023,3 hPa 0,0 l/m 0,0 km/h (0 Bft) SO 135 10,0 C 14,4 C 0,0 km/h (0 Bft)
31.08.2013 08:25 13,9 C 78 % 1023,4 hPa 0,0 l/m 0,0 km/h (0 Bft) W-SW 247 10,1 C 14,5 C 0,0 km/h (0 Bft)
31.08.2013 08:30 14,1 C 77 % 1023,4 hPa 0,0 l/m 0,2 km/h (0 Bft) W-SW 247 10,1 C 14,7 C 0,0 km/h (0 Bft)
31.08.2013 08:35 14,2 C 77 % 1023,4 hPa 0,0 l/m 0,2 km/h (0 Bft) S-SW 202 10,2 C 14,8 C 0,0 km/h (0 Bft)
31.08.2013 08:40 14,6 C 77 % 1023,4 hPa 0,0 l/m 0,2 km/h (0 Bft) S-SW 202 10,6 C 15,1 C 0,0 km/h (0 Bft)
31.08.2013 08:45 15,0 C 76 % 1023,4 hPa 0,0 l/m 0,2 km/h (0 Bft) S 180 10,8 C 15,3 C 0,0 km/h (0 Bft)
31.08.2013 08:50 15,5 C 75 % 1023,4 hPa 0,0 l/m 0,0 km/h (0 Bft) S 180 11,1 C 16,2 C 0,0 km/h (0 Bft)
31.08.2013 08:55 15,9 C 74 % 1023,4 hPa 0,0 l/m 0,0 km/h (0 Bft) S-SW 202 11,3 C 16,6 C 0,0 km/h (0 Bft)
31.08.2013 09:00 16,2 C 73 % 1023,4 hPa 0,0 l/m 0,3 km/h (0 Bft) S-SW 202 11,4 C 16,7 C 0,0 km/h (0 Bft)
31.08.2013 09:05 16,0 C 72 % 1023,7 hPa 0,0 l/m 0,3 km/h (0 Bft) S-SW 202 11,0 C 16,8 C 0,0 km/h (0 Bft)
31.08.2013 09:10 15,6 C 73 % 1023,7 hPa 0,0 l/m 0,3 km/h (0 Bft) W-SW 247 10,8 C 16,6 C 0,0 km/h (0 Bft)
31.08.2013 09:15 15,5 C 73 % 1023,7 hPa 0,0 l/m 0,0 km/h (0 Bft) S-SW 202 10,7 C 16,6 C 0,0 km/h (0 Bft)
31.08.2013 09:20 16,7 C 71 % 1023,7 hPa 0,0 l/m 0,5 km/h (0 Bft) W-SW 247 11,4 C 16,6 C 4,8 km/h (1 Bft)
31.08.2013 09:25 19,0 C 63 % 1023,8 hPa 0,0 l/m 1,9 km/h (1 Bft) S-SW 202 11,8 C 17,5 C 3,2 km/h (1 Bft)
31.08.2013 09:30 20,0 C 60 % 1023,8 hPa 0,0 l/m 2,6 km/h (1 Bft) W-SW 247 12,0 C 18,9 C 6,4 km/h (2 Bft)
31.08.2013 09:35 20,1 C 58 % 1023,8 hPa 0,0 l/m 1,4 km/h (1 Bft) S 180 11,6 C 20,3 C 0,0 km/h (0 Bft)
31.08.2013 09:40 20,5 C 57 % 1023,8 hPa 0,0 l/m 0,3 km/h (0 Bft) SO 135 11,7 C 21,8 C 0,0 km/h (0 Bft)
31.08.2013 09:45 21,3 C 57 % 1023,8 hPa 0,0 l/m 0,5 km/h (0 Bft) SO 135 12,4 C 22,8 C 2,3 km/h (1 Bft)
31.08.2013 09:50 21,6 C 54 % 1023,8 hPa 0,0 l/m 0,6 km/h (0 Bft) SO 135 11,9 C 23,6 C 0,0 km/h (0 Bft)
31.08.2013 09:55 21,1 C 51 % 1023,8 hPa 0,0 l/m 1,0 km/h (0 Bft) NO 45 10,6 C 24,2 C 0,0 km/h (0 Bft)
31.08.2013 10:00 21,4 C 54 % 1023,8 hPa 0,0 l/m 1,0 km/h (0 Bft) O-SO 112 11,7 C 24,3 C 2,6 km/h (1 Bft)
31.08.2013 10:05 22,0 C 51 % 1024,2 hPa 0,0 l/m 2,1 km/h (1 Bft) S-SW 202 11,4 C 24,1 C 8,9 km/h (2 Bft)
31.08.2013 10:10 22,3 C 49 % 1024,2 hPa 0,0 l/m 3,7 km/h (1 Bft) S 180 11,1 C 24,0 C 10,8 km/h (2 Bft)
31.08.2013 10:15 21,6 C 49 % 1024,2 hPa 0,0 l/m 5,5 km/h (1 Bft) SO 135 10,4 C 23,2 C 10,9 km/h (2 Bft)
31.08.2013 10:20 22,6 C 48 % 1024,2 hPa 0,0 l/m 7,2 km/h (2 Bft) SO 135 11,0 C 22,5 C 14,8 km/h (3 Bft)
31.08.2013 10:25 23,0 C 47 % 1024,8 hPa 0,0 l/m 7,2 km/h (2 Bft) NW 315 11,1 C 22,8 C 7,9 km/h (2 Bft)
31.08.2013 10:30 23,4 C 44 % 1024,8 hPa 0,0 l/m 6,9 km/h (2 Bft) S 180 10,4 C 23,5 C 10,1 km/h (2 Bft)
31.08.2013 10:35 23,2 C 45 % 1024,8 hPa 0,0 l/m 6,9 km/h (2 Bft) S-SO 157 10,6 C 23,5 C 7,4 km/h (2 Bft)
31.08.2013 10:40 22,2 C 45 % 1024,8 hPa 0,0 l/m 7,7 km/h (2 Bft) S-SW 202 9,7 C 22,7 C 14,8 km/h (3 Bft)
31.08.2013 10:45 22,0 C 46 % 1024,7 hPa 0,0 l/m 7,2 km/h (2 Bft) S 180 9,8 C 22,2 C 7,9 km/h (2 Bft)
31.08.2013 10:50 22,8 C 47 % 1024,7 hPa 0,0 l/m 6,1 km/h (2 Bft) S-SW 202 10,9 C 22,5 C 8,2 km/h (2 Bft)
31.08.2013 10:55 23,0 C 46 % 1024,7 hPa 0,0 l/m 5,1 km/h (1 Bft) S 180 10,7 C 22,3 C 4,8 km/h (1 Bft)
31.08.2013 11:00 22,5 C 47 % 1024,7 hPa 0,0 l/m 5,5 km/h (1 Bft) S 180 10,6 C 22,1 C 7,4 km/h (2 Bft)
31.08.2013 11:05 22,9 C 47 % 1025,0 hPa 0,0 l/m 5,6 km/h (1 Bft) S-SO 157 11,0 C 21,8 C 7,2 km/h (2 Bft)
31.08.2013 11:10 23,2 C 44 % 1025,0 hPa 0,0 l/m 5,8 km/h (2 Bft) S-SW 202 10,3 C 21,8 C 10,1 km/h (2 Bft)
31.08.2013 11:15 23,7 C 46 % 1025,0 hPa 0,0 l/m 6,3 km/h (2 Bft) S 180 11,4 C 21,6 C 13,2 km/h (3 Bft)
31.08.2013 11:20 22,9 C 45 % 1025,0 hPa 0,0 l/m 7,4 km/h (2 Bft) W-SW 247 10,3 C 20,9 C 12,9 km/h (3 Bft)
31.08.2013 11:25 23,0 C 45 % 1025,1 hPa 0,0 l/m 8,2 km/h (2 Bft) S 180 10,4 C 20,3 C 10,0 km/h (2 Bft)
31.08.2013 11:30 23,3 C 45 % 1025,1 hPa 0,0 l/m 7,1 km/h (2 Bft) W-SW 247 10,7 C 20,7 C 10,3 km/h (2 Bft)
31.08.2013 11:35 23,5 C 46 % 1025,1 hPa 0,0 l/m 6,1 km/h (2 Bft) W-SW 247 11,2 C 21,0 C 11,1 km/h (2 Bft)
31.08.2013 11:40 23,2 C 44 % 1025,1 hPa 0,0 l/m 7,9 km/h (2 Bft) W-SW 247 10,3 C 20,6 C 19,8 km/h (3 Bft)
31.08.2013 11:45 23,2 C 45 % 1025,1 hPa 0,0 l/m 8,4 km/h (2 Bft) S-SO 157 10,6 C 21,0 C 8,0 km/h (2 Bft)
31.08.2013 11:50 23,5 C 45 % 1025,1 hPa 0,0 l/m 6,9 km/h (2 Bft) SO 135 10,9 C 22,3 C 10,9 km/h (2 Bft)
31.08.2013 11:55 23,3 C 44 % 1025,1 hPa 0,0 l/m 7,2 km/h (2 Bft) S 180 10,4 C 22,5 C 15,6 km/h (3 Bft)
31.08.2013 12:00 23,7 C 44 % 1025,1 hPa 0,0 l/m 7,4 km/h (2 Bft) S 180 10,7 C 22,7 C 7,2 km/h (2 Bft)
31.08.2013 12:05 23,4 C 42 % 1025,2 hPa 0,0 l/m 7,4 km/h (2 Bft) S 180 9,7 C 22,9 C 12,2 km/h (2 Bft)
31.08.2013 12:10 23,4 C 44 % 1025,2 hPa 0,0 l/m 6,4 km/h (2 Bft) S 180 10,4 C 23,5 C 6,6 km/h (2 Bft)
31.08.2013 12:15 23,6 C 45 % 1025,2 hPa 0,0 l/m 6,4 km/h (2 Bft) W-SW 247 11,0 C 23,5 C 7,4 km/h (2 Bft)
31.08.2013 12:20 23,5 C 42 % 1025,2 hPa 0,0 l/m 6,4 km/h (2 Bft) S-SW 202 9,8 C 23,8 C 6,0 km/h (2 Bft)
31.08.2013 12:25 24,0 C 44 % 1024,9 hPa 0,0 l/m 6,3 km/h (2 Bft) S-SO 157 11,0 C 23,8 C 8,2 km/h (2 Bft)
31.08.2013 12:30 23,2 C 43 % 1024,9 hPa 0,0 l/m 7,2 km/h (2 Bft) S-SW 202 9,9 C 23,6 C 5,8 km/h (2 Bft)
31.08.2013 12:35 22,5 C 48 % 1024,9 hPa 0,0 l/m 6,6 km/h (2 Bft) S 180 10,9 C 23,4 C 7,6 km/h (2 Bft)
31.08.2013 12:40 23,7 C 44 % 1024,9 hPa 0,0 l/m 5,5 km/h (1 Bft) W-SW 247 10,7 C 23,7 C 6,0 km/h (2 Bft)
31.08.2013 12:45 24,0 C 44 % 1024,9 hPa 0,0 l/m 5,8 km/h (2 Bft) W-SW 247 11,0 C 24,1 C 7,2 km/h (2 Bft)
31.08.2013 12:50 23,4 C 43 % 1024,9 hPa 0,0 l/m 5,8 km/h (2 Bft) W-SW 247 10,1 C 24,5 C 11,3 km/h (2 Bft)
31.08.2013 12:55 23,7 C 44 % 1024,9 hPa 0,0 l/m 5,8 km/h (2 Bft) S 180 10,7 C 24,8 C 7,4 km/h (2 Bft)
31.08.2013 13:00 21,4 C 49 % 1024,9 hPa 0,0 l/m 6,6 km/h (2 Bft) W-SW 247 10,2 C 24,4 C 11,1 km/h (2 Bft)
31.08.2013 13:05 21,0 C 48 % 1024,8 hPa 0,0 l/m 6,8 km/h (2 Bft) S-SW 202 9,6 C 22,9 C 3,7 km/h (1 Bft)
31.08.2013 13:10 22,4 C 47 % 1024,8 hPa 0,0 l/m 5,8 km/h (2 Bft) SW 225 10,5 C 22,7 C 6,9 km/h (2 Bft)
31.08.2013 13:15 23,4 C 46 % 1024,8 hPa 0,0 l/m 6,0 km/h (2 Bft) S-SO 157 11,1 C 23,8 C 13,2 km/h (3 Bft)
31.08.2013 13:20 23,0 C 42 % 1024,8 hPa 0,0 l/m 9,0 km/h (2 Bft) O-SO 112 9,4 C 23,6 C 8,9 km/h (2 Bft)
31.08.2013 13:25 22,4 C 47 % 1025,0 hPa 0,0 l/m 9,0 km/h (2 Bft) S-SW 202 10,5 C 23,8 C 7,7 km/h (2 Bft)
31.08.2013 13:30 21,0 C 49 % 1025,0 hPa 0,0 l/m 6,9 km/h (2 Bft) W-SW 247 9,9 C 22,7 C 10,3 km/h (2 Bft)
31.08.2013 13:35 22,8 C 49 % 1025,0 hPa 0,0 l/m 6,3 km/h (2 Bft) S 180 11,5 C 22,9 C 7,7 km/h (2 Bft)
31.08.2013 13:40 23,1 C 45 % 1025,0 hPa 0,0 l/m 6,9 km/h (2 Bft) S 180 10,5 C 24,0 C 7,1 km/h (2 Bft)
31.08.2013 13:45 23,6 C 45 % 1025,1 hPa 0,0 l/m 7,2 km/h (2 Bft) SW 225 11,0 C 24,4 C 11,6 km/h (2 Bft)
31.08.2013 13:50 22,4 C 47 % 1025,1 hPa 0,0 l/m 7,7 km/h (2 Bft) S-SO 157 10,5 C 24,2 C 4,8 km/h (1 Bft)
31.08.2013 13:55 23,2 C 45 % 1025,1 hPa 0,0 l/m 8,5 km/h (2 Bft) S 180 10,6 C 23,7 C 7,9 km/h (2 Bft)
31.08.2013 14:00 22,4 C 48 % 1025,1 hPa 0,0 l/m 7,7 km/h (2 Bft) S 180 10,8 C 23,5 C 10,8 km/h (2 Bft)
31.08.2013 14:05 22,7 C 48 % 1025,0 hPa 0,0 l/m 7,2 km/h (2 Bft) S-SO 157 11,1 C 23,6 C 9,8 km/h (2 Bft)
31.08.2013 14:10 22,9 C 46 % 1025,0 hPa 0,0 l/m 7,1 km/h (2 Bft) S 180 10,7 C 24,1 C 8,0 km/h (2 Bft)
31.08.2013 14:15 22,9 C 48 % 1025,0 hPa 0,0 l/m 7,1 km/h (2 Bft) W-SW 247 11,3 C 23,8 C 12,9 km/h (3 Bft)
31.08.2013 14:20 23,3 C 45 % 1025,0 hPa 0,0 l/m 7,9 km/h (2 Bft) S-SW 202 10,7 C 24,3 C 7,7 km/h (2 Bft)
31.08.2013 14:25 23,3 C 44 % 1025,0 hPa 0,0 l/m 7,4 km/h (2 Bft) S-SW 202 10,4 C 24,9 C 7,4 km/h (2 Bft)
31.08.2013 14:30 21,2 C 49 % 1025,0 hPa 0,0 l/m 6,4 km/h (2 Bft) W-SW 247 10,1 C 24,0 C 5,5 km/h (1 Bft)
31.08.2013 14:35 21,1 C 49 % 1025,0 hPa 0,0 l/m 5,5 km/h (1 Bft) W-SW 247 10,0 C 23,1 C 2,4 km/h (1 Bft)
31.08.2013 14:40 22,4 C 52 % 1025,0 hPa 0,0 l/m 3,1 km/h (1 Bft) S 180 12,1 C 23,2 C 9,2 km/h (2 Bft)
31.08.2013 14:45 21,6 C 52 % 1025,1 hPa 0,0 l/m 3,1 km/h (1 Bft) W-SW 247 11,3 C 23,3 C 6,0 km/h (2 Bft)
31.08.2013 14:50 23,2 C 47 % 1025,1 hPa 0,0 l/m 5,3 km/h (1 Bft) W-SW 247 11,3 C 23,5 C 8,7 km/h (2 Bft)
31.08.2013 14:55 23,4 C 45 % 1025,1 hPa 0,0 l/m 6,3 km/h (2 Bft) W-SW 247 10,8 C 24,5 C 9,3 km/h (2 Bft)
31.08.2013 15:00 23,8 C 43 % 1025,1 hPa 0,0 l/m 6,3 km/h (2 Bft) W-SW 247 10,5 C 25,3 C 8,5 km/h (2 Bft)
31.08.2013 15:05 22,6 C 46 % 1024,9 hPa 0,0 l/m 6,0 km/h (2 Bft) W 270 10,4 C 25,3 C 8,9 km/h (2 Bft)
31.08.2013 15:10 22,7 C 46 % 1024,9 hPa 0,0 l/m 6,3 km/h (2 Bft) SW 225 10,5 C 24,7 C 8,4 km/h (2 Bft)
31.08.2013 15:15 22,5 C 48 % 1024,9 hPa 0,0 l/m 6,0 km/h (2 Bft) W-SW 247 10,9 C 24,4 C 12,6 km/h (3 Bft)
31.08.2013 15:20 23,3 C 48 % 1024,9 hPa 0,0 l/m 5,1 km/h (1 Bft) S-SW 202 11,7 C 24,3 C 7,1 km/h (2 Bft)
31.08.2013 15:25 23,6 C 46 % 1025,1 hPa 0,0 l/m 5,8 km/h (2 Bft) S-SO 157 11,3 C 25,1 C 12,6 km/h (3 Bft)
31.08.2013 15:30 22,1 C 47 % 1025,1 hPa 0,0 l/m 6,0 km/h (2 Bft) S 180 10,3 C 24,6 C 3,1 km/h (1 Bft)
31.08.2013 15:35 21,1 C 51 % 1025,1 hPa 0,0 l/m 6,0 km/h (2 Bft) SO 135 10,6 C 23,8 C 7,9 km/h (2 Bft)
31.08.2013 15:40 20,5 C 54 % 1025,1 hPa 0,0 l/m 5,1 km/h (1 Bft) NO 45 10,9 C 22,3 C 2,3 km/h (1 Bft)
31.08.2013 15:45 20,7 C 55 % 1024,5 hPa 0,0 l/m 4,3 km/h (1 Bft) SO 135 11,3 C 22,1 C 3,4 km/h (1 Bft)
31.08.2013 15:50 20,5 C 56 % 1024,5 hPa 0,0 l/m 4,2 km/h (1 Bft) SO 135 11,4 C 21,8 C 9,7 km/h (2 Bft)
31.08.2013 15:55 20,3 C 55 % 1024,5 hPa 0,0 l/m 4,8 km/h (1 Bft) S-SO 157 11,0 C 21,6 C 5,5 km/h (1 Bft)
31.08.2013 16:00 20,7 C 56 % 1024,5 hPa 0,0 l/m 4,8 km/h (1 Bft) S 180 11,6 C 21,6 C 9,0 km/h (2 Bft)
31.08.2013 16:05 21,7 C 55 % 1024,4 hPa 0,0 l/m 4,3 km/h (1 Bft) SO 135 12,3 C 22,8 C 9,7 km/h (2 Bft)
31.08.2013 16:10 21,7 C 52 % 1024,4 hPa 0,0 l/m 4,3 km/h (1 Bft) W-SW 247 11,4 C 23,5 C 3,5 km/h (1 Bft)
31.08.2013 16:15 22,4 C 51 % 1024,4 hPa 0,0 l/m 4,2 km/h (1 Bft) W-SW 247 11,8 C 23,9 C 4,8 km/h (1 Bft)
31.08.2013 16:20 23,2 C 48 % 1024,4 hPa 0,0 l/m 5,1 km/h (1 Bft) SW 225 11,6 C 25,3 C 10,6 km/h (2 Bft)
31.08.2013 16:25 22,6 C 48 % 1024,8 hPa 0,0 l/m 6,4 km/h (2 Bft) S-SW 202 11,0 C 25,6 C 6,0 km/h (2 Bft)
31.08.2013 16:30 22,7 C 49 % 1024,8 hPa 0,0 l/m 6,9 km/h (2 Bft) S 180 11,4 C 25,2 C 5,1 km/h (1 Bft)
31.08.2013 16:35 22,6 C 48 % 1024,8 hPa 0,0 l/m 6,0 km/h (2 Bft) W-SW 247 11,0 C 25,7 C 6,4 km/h (2 Bft)
31.08.2013 16:40 21,6 C 50 % 1024,8 hPa 0,0 l/m 5,6 km/h (1 Bft) W-SW 247 10,7 C 25,1 C 7,2 km/h (2 Bft)
31.08.2013 16:45 21,3 C 51 % 1024,6 hPa 0,0 l/m 5,3 km/h (1 Bft) S 180 10,7 C 24,6 C 10,1 km/h (2 Bft)
31.08.2013 16:50 21,4 C 52 % 1024,6 hPa 0,0 l/m 5,3 km/h (1 Bft) S-SW 202 11,1 C 24,1 C 6,8 km/h (2 Bft)
31.08.2013 16:55 20,8 C 53 % 1024,6 hPa 0,0 l/m 6,1 km/h (2 Bft) W-SW 247 10,9 C 24,2 C 7,6 km/h (2 Bft)
31.08.2013 17:00 21,1 C 53 % 1024,6 hPa 0,0 l/m 4,7 km/h (1 Bft) S 180 11,1 C 23,4 C 2,1 km/h (1 Bft)
31.08.2013 17:05 21,5 C 53 % 1024,4 hPa 0,0 l/m 5,1 km/h (1 Bft) S-SO 157 11,5 C 24,5 C 10,1 km/h (2 Bft)
31.08.2013 17:10 21,1 C 52 % 1024,4 hPa 0,0 l/m 6,3 km/h (2 Bft) S-SO 157 10,9 C 24,9 C 6,1 km/h (2 Bft)
31.08.2013 17:15 20,5 C 54 % 1024,4 hPa 0,0 l/m 7,1 km/h (2 Bft) S 180 10,9 C 24,3 C 5,6 km/h (1 Bft)
31.08.2013 17:20 19,9 C 55 % 1024,4 hPa 0,0 l/m 6,4 km/h (2 Bft) S 180 10,6 C 22,7 C 7,9 km/h (2 Bft)
31.08.2013 17:25 19,6 C 55 % 1024,2 hPa 0,0 l/m 6,3 km/h (2 Bft) O 90 10,3 C 22,2 C 3,7 km/h (1 Bft)
31.08.2013 17:30 19,6 C 56 % 1024,2 hPa 0,0 l/m 5,3 km/h (1 Bft) S-SW 202 10,6 C 21,6 C 9,3 km/h (2 Bft)
31.08.2013 17:35 19,6 C 56 % 1024,2 hPa 0,0 l/m 4,8 km/h (1 Bft) S-SO 157 10,6 C 21,4 C 7,7 km/h (2 Bft)
31.08.2013 17:40 19,2 C 57 % 1024,2 hPa 0,0 l/m 4,7 km/h (1 Bft) S 180 10,5 C 20,9 C 7,1 km/h (2 Bft)
31.08.2013 17:45 19,1 C 58 % 1023,8 hPa 0,0 l/m 4,7 km/h (1 Bft) S-SO 157 10,6 C 20,6 C 8,7 km/h (2 Bft)
31.08.2013 17:50 19,3 C 58 % 1023,8 hPa 0,0 l/m 4,7 km/h (1 Bft) N-NW 337 10,8 C 20,5 C 3,7 km/h (1 Bft)
31.08.2013 17:55 19,3 C 57 % 1023,8 hPa 0,0 l/m 4,7 km/h (1 Bft) S-SO 157 10,6 C 20,5 C 9,3 km/h (2 Bft)
31.08.2013 18:00 19,3 C 57 % 1023,8 hPa 0,0 l/m 5,0 km/h (1 Bft) S-SO 157 10,6 C 20,7 C 3,7 km/h (1 Bft)
31.08.2013 18:05 19,4 C 56 % 1023,9 hPa 0,0 l/m 4,3 km/h (1 Bft) S-SW 202 10,4 C 21,3 C 3,1 km/h (1 Bft)
31.08.2013 18:10 19,2 C 56 % 1023,9 hPa 0,0 l/m 4,5 km/h (1 Bft) SW 225 10,2 C 21,4 C 10,5 km/h (2 Bft)
31.08.2013 18:15 19,3 C 56 % 1023,9 hPa 0,0 l/m 4,8 km/h (1 Bft) S-SW 202 10,3 C 22,3 C 6,6 km/h (2 Bft)
31.08.2013 18:20 19,3 C 55 % 1023,9 hPa 0,0 l/m 6,3 km/h (2 Bft) S-SO 157 10,0 C 23,1 C 9,2 km/h (2 Bft)
31.08.2013 18:25 19,2 C 55 % 1023,6 hPa 0,0 l/m 6,1 km/h (2 Bft) S 180 9,9 C 23,3 C 6,9 km/h (2 Bft)
31.08.2013 18:30 18,7 C 56 % 1023,6 hPa 0,0 l/m 5,5 km/h (1 Bft) SO 135 9,7 C 22,8 C 8,0 km/h (2 Bft)
31.08.2013 18:35 18,5 C 56 % 1023,6 hPa 0,0 l/m 6,3 km/h (2 Bft) S 180 9,6 C 22,1 C 12,1 km/h (2 Bft)
31.08.2013 18:40 18,2 C 56 % 1023,6 hPa 0,0 l/m 6,8 km/h (2 Bft) S 180 9,3 C 20,5 C 4,0 km/h (1 Bft)
31.08.2013 18:45 18,2 C 56 % 1023,6 hPa 0,0 l/m 6,4 km/h (2 Bft) S 180 9,3 C 20,0 C 6,4 km/h (2 Bft)
31.08.2013 18:50 17,7 C 58 % 1023,6 hPa 0,0 l/m 4,3 km/h (1 Bft) O-SO 112 9,3 C 19,3 C 2,1 km/h (1 Bft)
31.08.2013 18:55 17,6 C 58 % 1023,6 hPa 0,0 l/m 3,2 km/h (1 Bft) S-SO 157 9,2 C 19,1 C 1,6 km/h (1 Bft)
31.08.2013 19:00 17,5 C 59 % 1023,6 hPa 0,0 l/m 1,1 km/h (1 Bft) S-SO 157 9,4 C 18,7 C 0,0 km/h (0 Bft)
31.08.2013 19:05 17,3 C 59 % 1023,8 hPa 0,0 l/m 1,1 km/h (1 Bft) NO 45 9,2 C 18,5 C 1,8 km/h (1 Bft)
31.08.2013 19:10 17,1 C 60 % 1023,8 hPa 0,0 l/m 0,6 km/h (0 Bft) S 180 9,3 C 18,2 C 0,0 km/h (0 Bft)
31.08.2013 19:15 17,0 C 61 % 1023,8 hPa 0,0 l/m 0,8 km/h (0 Bft) SO 135 9,4 C 18,0 C 2,6 km/h (1 Bft)
31.08.2013 19:20 17,1 C 61 % 1023,8 hPa 0,0 l/m 1,0 km/h (0 Bft) O 90 9,5 C 17,7 C 2,9 km/h (1 Bft)
31.08.2013 19:25 17,1 C 61 % 1023,8 hPa 0,0 l/m 1,1 km/h (1 Bft) NO 45 9,5 C 17,6 C 2,4 km/h (1 Bft)
31.08.2013 19:30 16,8 C 63 % 1023,8 hPa 0,0 l/m 1,9 km/h (1 Bft) O 90 9,7 C 17,2 C 3,2 km/h (1 Bft)
31.08.2013 19:35 16,7 C 64 % 1023,8 hPa 0,0 l/m 2,9 km/h (1 Bft) O-NO 67 9,9 C 17,0 C 5,6 km/h (1 Bft)
31.08.2013 19:40 16,7 C 65 % 1023,8 hPa 0,0 l/m 3,4 km/h (1 Bft) O 90 10,1 C 16,7 C 4,3 km/h (1 Bft)
31.08.2013 19:45 16,7 C 65 % 1024,0 hPa 0,0 l/m 3,2 km/h (1 Bft) O-SO 112 10,1 C 16,7 C 3,1 km/h (1 Bft)
31.08.2013 19:50 16,9 C 65 % 1024,0 hPa 0,0 l/m 1,6 km/h (1 Bft) O 90 10,3 C 16,7 C 0,0 km/h (0 Bft)
31.08.2013 19:55 16,8 C 65 % 1024,0 hPa 0,0 l/m 0,8 km/h (0 Bft) O-SO 112 10,2 C 16,8 C 0,0 km/h (0 Bft)
31.08.2013 20:00 16,7 C 66 % 1024,0 hPa 0,0 l/m 0,8 km/h (0 Bft) NO 45 10,3 C 16,8 C 2,9 km/h (1 Bft)
31.08.2013 20:05 16,7 C 66 % 1024,0 hPa 0,0 l/m 1,6 km/h (1 Bft) O 90 10,3 C 16,7 C 3,4 km/h (1 Bft)
31.08.2013 20:10 16,5 C 67 % 1024,0 hPa 0,0 l/m 3,1 km/h (1 Bft) O 90 10,4 C 16,6 C 4,7 km/h (1 Bft)
31.08.2013 20:15 16,3 C 67 % 1024,0 hPa 0,0 l/m 3,1 km/h (1 Bft) O 90 10,2 C 16,4 C 2,4 km/h (1 Bft)
31.08.2013 20:20 16,1 C 68 % 1024,0 hPa 0,0 l/m 2,6 km/h (1 Bft) O-NO 67 10,2 C 16,2 C 2,9 km/h (1 Bft)
31.08.2013 20:25 15,9 C 69 % 1024,1 hPa 0,0 l/m 2,1 km/h (1 Bft) O-NO 67 10,2 C 16,1 C 2,6 km/h (1 Bft)
31.08.2013 20:30 15,6 C 70 % 1024,1 hPa 0,0 l/m 1,9 km/h (1 Bft) O 90 10,1 C 15,8 C 2,9 km/h (1 Bft)
31.08.2013 20:35 15,6 C 69 % 1024,1 hPa 0,0 l/m 1,8 km/h (1 Bft) NO 45 9,9 C 15,8 C 2,6 km/h (1 Bft)
31.08.2013 20:40 15,7 C 70 % 1024,1 hPa 0,0 l/m 1,4 km/h (1 Bft) O-NO 67 10,2 C 15,7 C 0,0 km/h (0 Bft)
31.08.2013 20:45 15,6 C 72 % 1024,2 hPa 0,0 l/m 1,8 km/h (1 Bft) SW 225 10,6 C 15,8 C 2,6 km/h (1 Bft)
31.08.2013 20:50 14,4 C 80 % 1024,2 hPa 0,0 l/m 1,6 km/h (1 Bft) N-NW 337 11,0 C 14,8 C 3,4 km/h (1 Bft)
31.08.2013 20:55 13,8 C 86 % 1024,2 hPa 0,0 l/m 2,6 km/h (1 Bft) O-NO 67 11,5 C 14,2 C 6,9 km/h (2 Bft)
31.08.2013 21:00 13,7 C 88 % 1024,2 hPa 0,7 l/m 4,3 km/h (1 Bft) NO 45 11,7 C 13,8 C 4,8 km/h (1 Bft)
31.08.2013 21:05 13,7 C 89 % 1024,4 hPa 0,0 l/m 3,4 km/h (1 Bft) O 90 11,9 C 13,7 C 2,4 km/h (1 Bft)
31.08.2013 21:10 13,6 C 90 % 1024,4 hPa 0,0 l/m 1,9 km/h (1 Bft) O 90 12,0 C 13,7 C 4,2 km/h (1 Bft)
31.08.2013 21:15 13,5 C 90 % 1024,4 hPa 0,0 l/m 2,7 km/h (1 Bft) O 90 11,9 C 13,7 C 4,0 km/h (1 Bft)
31.08.2013 21:20 13,5 C 91 % 1024,4 hPa 0,0 l/m 3,7 km/h (1 Bft) N-NO 22 12,1 C 13,7 C 4,5 km/h (1 Bft)
31.08.2013 21:25 13,6 C 91 % 1024,3 hPa 0,0 l/m 2,6 km/h (1 Bft) N-NO 22 12,2 C 13,7 C 0,0 km/h (0 Bft)
31.08.2013 21:30 13,6 C 91 % 1024,3 hPa 0,0 l/m 0,6 km/h (0 Bft) O-SO 112 12,2 C 13,7 C 0,0 km/h (0 Bft)
31.08.2013 21:35 13,6 C 92 % 1024,3 hPa 0,0 l/m 0,2 km/h (0 Bft) NO 45 12,3 C 13,7 C 0,0 km/h (0 Bft)
31.08.2013 21:40 13,6 C 92 % 1024,3 hPa 0,0 l/m 0,0 km/h (0 Bft) NO 45 12,3 C 13,7 C 0,0 km/h (0 Bft)
31.08.2013 21:45 13,7 C 92 % 1024,7 hPa 0,0 l/m 0,5 km/h (0 Bft) NO 45 12,4 C 13,8 C 1,8 km/h (1 Bft)
31.08.2013 21:50 13,7 C 92 % 1024,7 hPa 0,0 l/m 0,8 km/h (0 Bft) S 180 12,4 C 13,9 C 0,0 km/h (0 Bft)
31.08.2013 21:55 13,6 C 92 % 1024,7 hPa 0,0 l/m 1,1 km/h (1 Bft) NO 45 12,3 C 13,9 C 3,9 km/h (1 Bft)
31.08.2013 22:00 13,5 C 92 % 1024,7 hPa 0,0 l/m 1,4 km/h (1 Bft) S-SW 202 12,2 C 13,9 C 0,0 km/h (0 Bft)
31.08.2013 22:05 13,5 C 92 % 1024,9 hPa 0,0 l/m 1,0 km/h (0 Bft) NO 45 12,2 C 13,9 C 1,8 km/h (1 Bft)
31.08.2013 22:10 13,4 C 92 % 1024,9 hPa 0,0 l/m 0,3 km/h (0 Bft) NO 45 12,1 C 13,9 C 2,4 km/h (1 Bft)
31.08.2013 22:15 13,4 C 92 % 1024,9 hPa 0,0 l/m 0,6 km/h (0 Bft) O 90 12,1 C 13,7 C 1,8 km/h (1 Bft)
31.08.2013 22:20 13,5 C 92 % 1024,9 hPa 0,0 l/m 1,1 km/h (1 Bft) O-SO 112 12,2 C 13,8 C 0,0 km/h (0 Bft)
31.08.2013 22:25 13,5 C 92 % 1025,0 hPa 0,0 l/m 0,8 km/h (0 Bft) O-SO 112 12,2 C 13,8 C 0,0 km/h (0 Bft)
31.08.2013 22:30 13,5 C 92 % 1025,0 hPa 0,0 l/m 0,0 km/h (0 Bft) S 180 12,2 C 13,8 C 1,9 km/h (1 Bft)
31.08.2013 22:35 13,5 C 92 % 1025,0 hPa 0,0 l/m 0,6 km/h (0 Bft) O 90 12,2 C 13,9 C 0,0 km/h (0 Bft)
31.08.2013 22:40 13,5 C 92 % 1025,0 hPa 0,0 l/m 3,1 km/h (1 Bft) NO 45 12,2 C 13,9 C 5,5 km/h (1 Bft)
31.08.2013 22:45 13,4 C 92 % 1025,2 hPa 0,0 l/m 4,3 km/h (1 Bft) O 90 12,1 C 13,7 C 5,0 km/h (1 Bft)
31.08.2013 22:50 13,4 C 92 % 1025,2 hPa 0,0 l/m 4,5 km/h (1 Bft) O 90 12,1 C 13,6 C 6,0 km/h (2 Bft)
31.08.2013 22:55 13,4 C 92 % 1025,2 hPa 0,0 l/m 3,7 km/h (1 Bft) O-NO 67 12,1 C 13,6 C 2,9 km/h (1 Bft)
31.08.2013 23:00 13,4 C 92 % 1025,2 hPa 0,0 l/m 3,1 km/h (1 Bft) O 90 12,1 C 13,5 C 1,9 km/h (1 Bft)
31.08.2013 23:05 13,4 C 92 % 1025,2 hPa 0,0 l/m 1,9 km/h (1 Bft) O 90 12,1 C 13,5 C 2,6 km/h (1 Bft)
31.08.2013 23:10 13,4 C 93 % 1025,2 hPa 0,0 l/m 0,8 km/h (0 Bft) O 90 12,3 C 13,5 C 0,0 km/h (0 Bft)
31.08.2013 23:15 13,3 C 93 % 1025,2 hPa 0,0 l/m 0,5 km/h (0 Bft) O 90 12,2 C 13,4 C 0,0 km/h (0 Bft)
31.08.2013 23:20 13,2 C 93 % 1025,2 hPa 0,7 l/m 0,3 km/h (0 Bft) O-NO 67 12,1 C 13,4 C 0,0 km/h (0 Bft)
31.08.2013 23:25 13,2 C 93 % 1025,4 hPa 0,0 l/m 0,5 km/h (0 Bft) S-SO 157 12,1 C 13,3 C 0,0 km/h (0 Bft)
31.08.2013 23:30 13,1 C 93 % 1025,4 hPa 0,7 l/m 1,6 km/h (1 Bft) S 180 12,0 C 13,3 C 3,2 km/h (1 Bft)
31.08.2013 23:35 13,1 C 93 % 1025,4 hPa 0,0 l/m 2,4 km/h (1 Bft) S-SO 157 12,0 C 13,3 C 5,8 km/h (2 Bft)
31.08.2013 23:40 13,0 C 93 % 1025,4 hPa 0,7 l/m 1,9 km/h (1 Bft) S 180 11,9 C 13,2 C 0,0 km/h (0 Bft)
31.08.2013 23:45 13,0 C 93 % 1025,6 hPa 0,0 l/m 1,8 km/h (1 Bft) S 180 11,9 C 13,1 C 3,9 km/h (1 Bft)
31.08.2013 23:50 13,0 C 93 % 1025,6 hPa 0,0 l/m 2,4 km/h (1 Bft) S 180 11,9 C 13,1 C 2,3 km/h (1 Bft)
31.08.2013 23:55 13,0 C 93 % 1025,6 hPa 0,7 l/m 2,3 km/h (1 Bft) S 180 11,9 C 13,1 C 2,9 km/h (1 Bft)
_ Min-Zeit 00:20 13:20 07:20 - 22:30 - - 00:05 00:25 23:40
Minimum _ 9,7 C 42 % 1023,1 hPa - 0,0 km/h (0 Bft) - - 7,1 C 9,3 C 0,0 km/h (0 Bft)
_ Max-Zeit 12:45 23:55 23:55 23:55 13:25 - - 09:45 16:35 11:40
Maximum _ 24,0 C 93 % 1025,6 hPa 0,7 l/m 9,0 km/h
S-SW (2 Bft)
- - 12,4 C 25,7 C 19,8 km/h
W-SW (3 Bft)
Durchschnitt _ 16,3 C 69 % 1024,1 hPa #3,4 l/m 2,7 km/h (1 Bft) S - 9,9 C 16,8 C 3,6 km/h (1 Bft)